sensor_id;sensor_type;location;lat;lon;timestamp;pressure;altitude;pressure_sealevel;temperature;humidity
21401;BME280;18038;50.166;18.908;2023-09-19T00:01:39;97355.13;;;16.33;68.05
21401;BME280;18038;50.166;18.908;2023-09-19T00:04:50;97352.41;;;16.33;68.26
21401;BME280;18038;50.166;18.908;2023-09-19T00:08:06;97350.59;;;16.38;68.39
21401;BME280;18038;50.166;18.908;2023-09-19T00:11:28;97351.09;;;16.35;68.44
21401;BME280;18038;50.166;18.908;2023-09-19T00:14:39;97342.22;;;16.35;68.88
21401;BME280;18038;50.166;18.908;2023-09-19T00:17:52;97343.44;;;16.27;68.75
21401;BME280;18038;50.166;18.908;2023-09-19T00:20:59;97345.00;;;16.23;68.88
21401;BME280;18038;50.166;18.908;2023-09-19T00:24:09;97342.31;;;16.23;69.40
21401;BME280;18038;50.166;18.908;2023-09-19T00:27:17;97338.00;;;16.22;69.43
21401;BME280;18038;50.166;18.908;2023-09-19T00:30:27;97339.59;;;16.23;69.45
21401;BME280;18038;50.166;18.908;2023-09-19T00:33:35;97337.25;;;16.27;69.23
21401;BME280;18038;50.166;18.908;2023-09-19T00:36:43;97332.59;;;16.22;69.08
21401;BME280;18038;50.166;18.908;2023-09-19T00:39:51;97326.91;;;16.18;69.32
21401;BME280;18038;50.166;18.908;2023-09-19T00:42:59;97331.78;;;16.21;69.48
21401;BME280;18038;50.166;18.908;2023-09-19T00:46:10;97324.44;;;16.17;69.48
21401;BME280;18038;50.166;18.908;2023-09-19T00:49:27;97324.22;;;16.18;69.69
21401;BME280;18038;50.166;18.908;2023-09-19T00:52:40;97320.63;;;16.13;69.72
21401;BME280;18038;50.166;18.908;2023-09-19T00:55:51;97318.19;;;16.11;70.37
21401;BME280;18038;50.166;18.908;2023-09-19T00:59:00;97310.59;;;16.08;70.56
21401;BME280;18038;50.166;18.908;2023-09-19T01:02:11;97317.03;;;16.07;70.15
21401;BME280;18038;50.166;18.908;2023-09-19T01:05:20;97307.81;;;16.03;70.75
21401;BME280;18038;50.166;18.908;2023-09-19T01:08:28;97308.56;;;15.98;71.25
21401;BME280;18038;50.166;18.908;2023-09-19T01:11:43;97301.38;;;16.04;70.91
21401;BME280;18038;50.166;18.908;2023-09-19T01:15:01;97294.28;;;15.98;71.24
21401;BME280;18038;50.166;18.908;2023-09-19T01:18:37;97283.34;;;16.05;73.08
21401;BME280;18038;50.166;18.908;2023-09-19T01:22:00;97280.75;;;15.93;73.80
21401;BME280;18038;50.166;18.908;2023-09-19T01:25:38;97279.44;;;15.78;74.97
21401;BME280;18038;50.166;18.908;2023-09-19T01:29:23;97271.94;;;15.64;75.48
21401;BME280;18038;50.166;18.908;2023-09-19T01:32:52;97272.66;;;15.59;76.42
21401;BME280;18038;50.166;18.908;2023-09-19T01:36:02;97272.91;;;15.58;75.69
21401;BME280;18038;50.166;18.908;2023-09-19T01:39:14;97280.91;;;15.52;75.83
21401;BME280;18038;50.166;18.908;2023-09-19T01:42:39;97267.69;;;15.51;76.37
21401;BME280;18038;50.166;18.908;2023-09-19T01:46:01;97268.03;;;15.54;76.31
21401;BME280;18038;50.166;18.908;2023-09-19T01:49:26;97267.69;;;15.51;76.29
21401;BME280;18038;50.166;18.908;2023-09-19T01:52:57;97270.97;;;15.53;76.08
21401;BME280;18038;50.166;18.908;2023-09-19T01:56:25;97272.44;;;15.61;76.18
21401;BME280;18038;50.166;18.908;2023-09-19T01:59:45;97270.06;;;15.64;76.44
21401;BME280;18038;50.166;18.908;2023-09-19T02:03:03;97280.91;;;15.69;76.11
21401;BME280;18038;50.166;18.908;2023-09-19T02:06:17;97271.22;;;15.68;76.68
21401;BME280;18038;50.166;18.908;2023-09-19T02:09:26;97275.28;;;15.71;76.58
21401;BME280;18038;50.166;18.908;2023-09-19T02:12:34;97274.13;;;15.67;76.80
21401;BME280;18038;50.166;18.908;2023-09-19T02:15:43;97273.63;;;15.70;76.70
21401;BME280;18038;50.166;18.908;2023-09-19T02:18:51;97279.00;;;15.70;75.83
21401;BME280;18038;50.166;18.908;2023-09-19T02:22:02;97272.00;;;15.69;75.97
21401;BME280;18038;50.166;18.908;2023-09-19T02:25:11;97270.94;;;15.70;76.39
21401;BME280;18038;50.166;18.908;2023-09-19T02:28:30;97277.41;;;15.69;75.77
21401;BME280;18038;50.166;18.908;2023-09-19T02:31:38;97268.00;;;15.71;75.60
21401;BME280;18038;50.166;18.908;2023-09-19T02:34:47;97265.31;;;15.71;75.78
21401;BME280;18038;50.166;18.908;2023-09-19T02:38:01;97268.16;;;15.65;76.32
21401;BME280;18038;50.166;18.908;2023-09-19T02:41:11;97274.84;;;15.62;76.01
21401;BME280;18038;50.166;18.908;2023-09-19T02:44:18;97267.84;;;15.61;76.47
21401;BME280;18038;50.166;18.908;2023-09-19T02:47:35;97265.88;;;15.56;76.79
21401;BME280;18038;50.166;18.908;2023-09-19T02:50:43;97271.53;;;15.55;77.25
21401;BME280;18038;50.166;18.908;2023-09-19T02:53:54;97266.16;;;15.55;76.81
21401;BME280;18038;50.166;18.908;2023-09-19T02:57:01;97261.72;;;15.49;78.12
21401;BME280;18038;50.166;18.908;2023-09-19T03:00:12;97258.41;;;15.42;78.86
21401;BME280;18038;50.166;18.908;2023-09-19T03:03:21;97258.91;;;15.39;80.53
21401;BME280;18038;50.166;18.908;2023-09-19T03:06:29;97259.28;;;15.30;81.40
21401;BME280;18038;50.166;18.908;2023-09-19T03:09:40;97260.25;;;15.24;83.20
21401;BME280;18038;50.166;18.908;2023-09-19T03:12:55;97256.28;;;15.27;83.90
21401;BME280;18038;50.166;18.908;2023-09-19T03:16:06;97256.03;;;15.28;85.12
21401;BME280;18038;50.166;18.908;2023-09-19T03:19:15;97258.06;;;15.38;85.51
21401;BME280;18038;50.166;18.908;2023-09-19T03:22:32;97255.22;;;15.45;85.98
21401;BME280;18038;50.166;18.908;2023-09-19T03:25:56;97254.16;;;15.46;86.57
21401;BME280;18038;50.166;18.908;2023-09-19T03:29:09;97254.06;;;15.41;87.54
21401;BME280;18038;50.166;18.908;2023-09-19T03:32:19;97251.16;;;15.42;88.92
21401;BME280;18038;50.166;18.908;2023-09-19T03:35:27;97244.47;;;15.45;89.71
21401;BME280;18038;50.166;18.908;2023-09-19T03:38:36;97248.69;;;15.41;92.19
21401;BME280;18038;50.166;18.908;2023-09-19T03:41:46;97243.38;;;15.46;93.16
21401;BME280;18038;50.166;18.908;2023-09-19T03:44:54;97246.66;;;15.48;94.85
21401;BME280;18038;50.166;18.908;2023-09-19T03:48:06;97243.31;;;15.58;96.25
21401;BME280;18038;50.166;18.908;2023-09-19T03:51:16;97250.25;;;15.70;95.85
21401;BME280;18038;50.166;18.908;2023-09-19T03:54:23;97249.47;;;15.75;95.94
21401;BME280;18038;50.166;18.908;2023-09-19T03:57:37;97251.56;;;15.85;95.61
21401;BME280;18038;50.166;18.908;2023-09-19T04:00:45;97250.56;;;15.91;95.49
21401;BME280;18038;50.166;18.908;2023-09-19T04:03:54;97249.16;;;15.88;96.11
21401;BME280;18038;50.166;18.908;2023-09-19T04:07:01;97248.25;;;15.83;96.70
21401;BME280;18038;50.166;18.908;2023-09-19T04:10:10;97251.94;;;15.60;94.66
21401;BME280;18038;50.166;18.908;2023-09-19T04:13:21;97250.00;;;15.38;95.48
21401;BME280;18038;50.166;18.908;2023-09-19T04:16:29;97242.59;;;15.28;96.38
21401;BME280;18038;50.166;18.908;2023-09-19T04:19:37;97238.66;;;15.19;98.30
21401;BME280;18038;50.166;18.908;2023-09-19T04:22:46;97242.66;;;15.17;99.76
21401;BME280;18038;50.166;18.908;2023-09-19T04:25:54;97242.81;;;15.27;100.00
21401;BME280;18038;50.166;18.908;2023-09-19T04:29:05;97241.03;;;15.32;100.00
21401;BME280;18038;50.166;18.908;2023-09-19T04:32:15;97239.88;;;15.45;100.00
21401;BME280;18038;50.166;18.908;2023-09-19T04:35:23;97234.34;;;15.52;100.00
21401;BME280;18038;50.166;18.908;2023-09-19T04:38:30;97242.25;;;15.59;100.00
21401;BME280;18038;50.166;18.908;2023-09-19T04:41:47;97238.81;;;15.63;100.00
21401;BME280;18038;50.166;18.908;2023-09-19T04:44:59;97241.59;;;15.68;100.00
21401;BME280;18038;50.166;18.908;2023-09-19T04:48:09;97247.56;;;15.70;100.00
21401;BME280;18038;50.166;18.908;2023-09-19T04:51:24;97241.84;;;15.67;100.00
21401;BME280;18038;50.166;18.908;2023-09-19T04:54:35;97245.09;;;15.69;100.00
21401;BME280;18038;50.166;18.908;2023-09-19T04:57:46;97250.06;;;15.77;100.00
21401;BME280;18038;50.166;18.908;2023-09-19T05:01:00;97255.22;;;15.78;100.00
21401;BME280;18038;50.166;18.908;2023-09-19T05:04:08;97257.97;;;15.84;99.60
21401;BME280;18038;50.166;18.908;2023-09-19T05:07:17;97250.25;;;15.87;99.45
21401;BME280;18038;50.166;18.908;2023-09-19T05:10:25;97263.50;;;15.94;99.26
21401;BME280;18038;50.166;18.908;2023-09-19T05:13:34;97265.16;;;15.95;98.95
21401;BME280;18038;50.166;18.908;2023-09-19T05:16:45;97273.25;;;15.95;99.73
21401;BME280;18038;50.166;18.908;2023-09-19T05:19:53;97281.31;;;15.95;99.65
21401;BME280;18038;50.166;18.908;2023-09-19T05:23:07;97283.91;;;16.07;99.19
21401;BME280;18038;50.166;18.908;2023-09-19T05:26:17;97282.66;;;16.14;98.41
21401;BME280;18038;50.166;18.908;2023-09-19T05:29:25;97285.50;;;16.25;97.77
21401;BME280;18038;50.166;18.908;2023-09-19T05:32:37;97289.81;;;16.26;96.77
21401;BME280;18038;50.166;18.908;2023-09-19T05:35:45;97287.81;;;16.16;94.53
21401;BME280;18038;50.166;18.908;2023-09-19T05:38:53;97294.00;;;16.16;93.99
21401;BME280;18038;50.166;18.908;2023-09-19T05:42:04;97287.66;;;16.06;92.97
21401;BME280;18038;50.166;18.908;2023-09-19T05:45:13;97298.13;;;16.02;93.03
21401;BME280;18038;50.166;18.908;2023-09-19T05:48:30;97296.56;;;16.06;92.93
21401;BME280;18038;50.166;18.908;2023-09-19T05:51:39;97305.78;;;16.10;92.04
21401;BME280;18038;50.166;18.908;2023-09-19T05:54:47;97300.97;;;15.95;92.30
21401;BME280;18038;50.166;18.908;2023-09-19T05:57:55;97310.59;;;15.91;92.02
21401;BME280;18038;50.166;18.908;2023-09-19T06:01:03;97304.91;;;15.88;92.93
21401;BME280;18038;50.166;18.908;2023-09-19T06:04:15;97315.25;;;15.96;92.77
21401;BME280;18038;50.166;18.908;2023-09-19T06:07:28;97310.84;;;15.90;92.50
21401;BME280;18038;50.166;18.908;2023-09-19T06:10:41;97319.44;;;15.87;93.35
21401;BME280;18038;50.166;18.908;2023-09-19T06:13:51;97326.44;;;15.88;92.94
21401;BME280;18038;50.166;18.908;2023-09-19T06:17:11;97331.00;;;15.87;93.40
21401;BME280;18038;50.166;18.908;2023-09-19T06:20:21;97333.88;;;15.97;92.68
21401;BME280;18038;50.166;18.908;2023-09-19T06:23:31;97336.16;;;15.89;92.62
21401;BME280;18038;50.166;18.908;2023-09-19T06:26:39;97336.53;;;15.81;93.15
21401;BME280;18038;50.166;18.908;2023-09-19T06:29:49;97339.97;;;15.76;93.73
21401;BME280;18038;50.166;18.908;2023-09-19T06:32:59;97328.63;;;15.91;93.61
21401;BME280;18038;50.166;18.908;2023-09-19T06:36:11;97332.41;;;15.90;92.98
21401;BME280;18038;50.166;18.908;2023-09-19T06:39:21;97344.63;;;15.97;92.19
21401;BME280;18038;50.166;18.908;2023-09-19T06:42:30;97346.91;;;16.06;91.99
21401;BME280;18038;50.166;18.908;2023-09-19T06:45:38;97352.03;;;16.07;91.66
21401;BME280;18038;50.166;18.908;2023-09-19T06:48:47;97353.78;;;16.13;90.82
21401;BME280;18038;50.166;18.908;2023-09-19T06:51:59;97360.28;;;16.17;91.65
21401;BME280;18038;50.166;18.908;2023-09-19T06:55:08;97374.81;;;16.16;90.43
21401;BME280;18038;50.166;18.908;2023-09-19T06:58:20;97372.03;;;16.11;90.17
21401;BME280;18038;50.166;18.908;2023-09-19T07:01:28;97381.53;;;15.97;90.06
21401;BME280;18038;50.166;18.908;2023-09-19T07:04:38;97393.94;;;15.98;89.81
21401;BME280;18038;50.166;18.908;2023-09-19T07:07:49;97399.81;;;15.95;90.57
21401;BME280;18038;50.166;18.908;2023-09-19T07:10:56;97416.63;;;16.02;90.43
21401;BME280;18038;50.166;18.908;2023-09-19T07:14:04;97423.16;;;15.89;90.13
21401;BME280;18038;50.166;18.908;2023-09-19T07:17:12;97430.16;;;15.90;89.47
21401;BME280;18038;50.166;18.908;2023-09-19T07:20:24;97429.16;;;15.96;88.94
21401;BME280;18038;50.166;18.908;2023-09-19T07:23:39;97435.41;;;15.97;89.24
21401;BME280;18038;50.166;18.908;2023-09-19T07:26:47;97431.84;;;15.96;88.53
21401;BME280;18038;50.166;18.908;2023-09-19T07:29:55;97446.31;;;15.90;88.83
21401;BME280;18038;50.166;18.908;2023-09-19T07:33:05;97446.81;;;16.04;89.13
21401;BME280;18038;50.166;18.908;2023-09-19T07:36:15;97463.41;;;16.13;88.51
21401;BME280;18038;50.166;18.908;2023-09-19T07:39:26;97473.34;;;16.12;88.59
21401;BME280;18038;50.166;18.908;2023-09-19T07:42:33;97484.69;;;16.14;87.99
21401;BME280;18038;50.166;18.908;2023-09-19T07:45:45;97482.00;;;16.14;87.99
21401;BME280;18038;50.166;18.908;2023-09-19T07:48:53;97495.19;;;15.99;88.22
21401;BME280;18038;50.166;18.908;2023-09-19T07:52:01;97495.09;;;15.94;88.60
21401;BME280;18038;50.166;18.908;2023-09-19T07:55:11;97504.13;;;15.99;89.00
21401;BME280;18038;50.166;18.908;2023-09-19T07:58:30;97510.22;;;15.95;89.42
21401;BME280;18038;50.166;18.908;2023-09-19T08:01:37;97517.03;;;15.86;89.56
21401;BME280;18038;50.166;18.908;2023-09-19T08:04:46;97512.56;;;15.91;89.78
21401;BME280;18038;50.166;18.908;2023-09-19T08:07:55;97518.28;;;15.95;90.44
21401;BME280;18038;50.166;18.908;2023-09-19T08:11:06;97525.50;;;16.06;89.81
21401;BME280;18038;50.166;18.908;2023-09-19T08:14:16;97531.94;;;16.05;88.98
21401;BME280;18038;50.166;18.908;2023-09-19T08:17:24;97537.56;;;16.04;89.89
21401;BME280;18038;50.166;18.908;2023-09-19T08:20:32;97546.34;;;15.99;89.44
21401;BME280;18038;50.166;18.908;2023-09-19T08:23:42;97553.41;;;16.00;90.24
21401;BME280;18038;50.166;18.908;2023-09-19T08:26:52;97550.84;;;15.93;90.61
21401;BME280;18038;50.166;18.908;2023-09-19T08:30:00;97551.31;;;15.90;90.44
21401;BME280;18038;50.166;18.908;2023-09-19T08:33:08;97549.94;;;15.88;90.04
21401;BME280;18038;50.166;18.908;2023-09-19T08:36:16;97558.00;;;15.88;89.75
21401;BME280;18038;50.166;18.908;2023-09-19T08:39:23;97550.03;;;15.93;89.84
21401;BME280;18038;50.166;18.908;2023-09-19T08:42:47;97557.00;;;16.06;90.27
21401;BME280;18038;50.166;18.908;2023-09-19T08:46:03;97557.81;;;16.06;89.67
21401;BME280;18038;50.166;18.908;2023-09-19T08:49:26;97566.28;;;15.98;89.40
21401;BME280;18038;50.166;18.908;2023-09-19T08:52:42;97572.06;;;15.90;88.82
21401;BME280;18038;50.166;18.908;2023-09-19T08:55:54;97572.19;;;16.12;89.82
21401;BME280;18038;50.166;18.908;2023-09-19T08:59:07;97563.06;;;16.13;89.49
21401;BME280;18038;50.166;18.908;2023-09-19T09:02:16;97574.38;;;16.15;89.78
21401;BME280;18038;50.166;18.908;2023-09-19T09:05:27;97571.69;;;16.15;89.22
21401;BME280;18038;50.166;18.908;2023-09-19T09:08:38;97568.34;;;16.08;90.07
21401;BME280;18038;50.166;18.908;2023-09-19T09:11:48;97576.53;;;16.13;90.52
21401;BME280;18038;50.166;18.908;2023-09-19T09:15:00;97570.56;;;16.11;89.54
21401;BME280;18038;50.166;18.908;2023-09-19T09:18:07;97569.34;;;16.18;89.27
21401;BME280;18038;50.166;18.908;2023-09-19T09:21:16;97573.88;;;16.30;89.35
21401;BME280;18038;50.166;18.908;2023-09-19T09:24:29;97572.38;;;16.39;89.18
21401;BME280;18038;50.166;18.908;2023-09-19T09:27:40;97574.03;;;16.40;88.15
21401;BME280;18038;50.166;18.908;2023-09-19T09:30:51;97580.16;;;16.35;87.73
21401;BME280;18038;50.166;18.908;2023-09-19T09:34:01;97579.03;;;16.31;87.04
21401;BME280;18038;50.166;18.908;2023-09-19T09:37:13;97583.91;;;16.34;87.52
21401;BME280;18038;50.166;18.908;2023-09-19T09:40:47;97586.53;;;16.46;87.48
21401;BME280;18038;50.166;18.908;2023-09-19T09:44:13;97592.50;;;16.48;87.25
21401;BME280;18038;50.166;18.908;2023-09-19T09:47:44;97597.59;;;16.61;87.79
21401;BME280;18038;50.166;18.908;2023-09-19T09:51:01;97596.50;;;16.62;87.23
21401;BME280;18038;50.166;18.908;2023-09-19T09:54:14;97594.41;;;16.64;87.56
21401;BME280;18038;50.166;18.908;2023-09-19T09:57:23;97602.00;;;16.68;87.11
21401;BME280;18038;50.166;18.908;2023-09-19T10:00:32;97597.88;;;16.77;86.95
21401;BME280;18038;50.166;18.908;2023-09-19T10:03:57;97590.41;;;16.84;86.35
21401;BME280;18038;50.166;18.908;2023-09-19T10:07:06;97590.56;;;16.94;86.65
21401;BME280;18038;50.166;18.908;2023-09-19T10:10:15;97598.50;;;17.01;86.42
21401;BME280;18038;50.166;18.908;2023-09-19T10:13:46;97604.06;;;17.11;85.21
21401;BME280;18038;50.166;18.908;2023-09-19T10:16:56;97605.97;;;17.11;85.28
21401;BME280;18038;50.166;18.908;2023-09-19T10:20:12;97614.38;;;16.97;85.39
21401;BME280;18038;50.166;18.908;2023-09-19T10:23:40;97615.81;;;17.05;86.04
21401;BME280;18038;50.166;18.908;2023-09-19T10:26:51;97623.44;;;16.91;86.71
21401;BME280;18038;50.166;18.908;2023-09-19T10:30:01;97622.94;;;16.94;86.66
21401;BME280;18038;50.166;18.908;2023-09-19T10:33:15;97629.09;;;16.90;86.83
21401;BME280;18038;50.166;18.908;2023-09-19T10:36:32;97633.25;;;16.80;87.10
21401;BME280;18038;50.166;18.908;2023-09-19T10:39:46;97630.41;;;16.87;87.23
21401;BME280;18038;50.166;18.908;2023-09-19T10:43:00;97630.88;;;16.84;86.86
21401;BME280;18038;50.166;18.908;2023-09-19T10:46:13;97633.50;;;16.79;87.21
21401;BME280;18038;50.166;18.908;2023-09-19T10:49:21;97641.09;;;16.82;87.68
21401;BME280;18038;50.166;18.908;2023-09-19T10:52:39;97651.19;;;16.75;87.18
21401;BME280;18038;50.166;18.908;2023-09-19T10:55:57;97653.31;;;16.73;87.91
21401;BME280;18038;50.166;18.908;2023-09-19T10:59:16;97649.09;;;16.77;87.71
21401;BME280;18038;50.166;18.908;2023-09-19T11:02:25;97652.81;;;16.59;87.05
21401;BME280;18038;50.166;18.908;2023-09-19T11:05:33;97654.19;;;16.61;87.72
21401;BME280;18038;50.166;18.908;2023-09-19T11:08:58;97659.72;;;16.55;88.05
21401;BME280;18038;50.166;18.908;2023-09-19T11:12:47;97661.47;;;16.61;88.17
21401;BME280;18038;50.166;18.908;2023-09-19T11:16:18;97664.81;;;16.68;87.14
21401;BME280;18038;50.166;18.908;2023-09-19T11:23:39;97665.50;;;16.75;87.36
21401;BME280;18038;50.166;18.908;2023-09-19T11:26:50;97663.19;;;16.67;86.88
21401;BME280;18038;50.166;18.908;2023-09-19T11:30:27;97660.81;;;16.71;86.69
21401;BME280;18038;50.166;18.908;2023-09-19T11:33:37;97666.38;;;16.93;86.10
21401;BME280;18038;50.166;18.908;2023-09-19T11:36:50;97665.63;;;16.97;85.36
21401;BME280;18038;50.166;18.908;2023-09-19T11:40:06;97669.28;;;16.91;86.52
21401;BME280;18038;50.166;18.908;2023-09-19T11:43:32;97663.97;;;16.96;86.77
21401;BME280;18038;50.166;18.908;2023-09-19T11:46:53;97664.78;;;16.80;85.77
21401;BME280;18038;50.166;18.908;2023-09-19T11:50:04;97667.97;;;16.77;85.48
21401;BME280;18038;50.166;18.908;2023-09-19T11:53:16;97670.28;;;16.85;85.93
21401;BME280;18038;50.166;18.908;2023-09-19T11:56:25;97671.03;;;16.97;84.40
21401;BME280;18038;50.166;18.908;2023-09-19T11:59:39;97667.09;;;17.05;84.32
21401;BME280;18038;50.166;18.908;2023-09-19T12:02:53;97668.56;;;17.13;85.01
21401;BME280;18038;50.166;18.908;2023-09-19T12:06:11;97670.28;;;17.36;83.65
21401;BME280;18038;50.166;18.908;2023-09-19T12:09:21;97672.81;;;17.42;82.51
21401;BME280;18038;50.166;18.908;2023-09-19T12:12:30;97675.97;;;17.56;80.24
21401;BME280;18038;50.166;18.908;2023-09-19T12:15:40;97676.28;;;17.60;80.53
21401;BME280;18038;50.166;18.908;2023-09-19T12:18:50;97683.25;;;17.56;81.02
21401;BME280;18038;50.166;18.908;2023-09-19T12:22:01;97683.00;;;17.74;80.13
21401;BME280;18038;50.166;18.908;2023-09-19T12:25:13;97686.31;;;17.81;79.18
21401;BME280;18038;50.166;18.908;2023-09-19T12:28:26;97681.91;;;18.14;79.18
21401;BME280;18038;50.166;18.908;2023-09-19T12:31:53;97688.78;;;18.27;76.61
21401;BME280;18038;50.166;18.908;2023-09-19T12:35:07;97685.59;;;18.08;77.30
21401;BME280;18038;50.166;18.908;2023-09-19T12:38:25;97682.97;;;18.40;78.25
21401;BME280;18038;50.166;18.908;2023-09-19T12:41:37;97677.25;;;18.86;76.42
21401;BME280;18038;50.166;18.908;2023-09-19T12:44:48;97679.97;;;18.86;74.35
21401;BME280;18038;50.166;18.908;2023-09-19T12:48:25;97689.41;;;18.83;74.56
21401;BME280;18038;50.166;18.908;2023-09-19T12:51:39;97686.72;;;19.15;74.94
21401;BME280;18038;50.166;18.908;2023-09-19T12:54:47;97686.63;;;19.37;74.17
21401;BME280;18038;50.166;18.908;2023-09-19T12:58:01;97678.91;;;19.24;72.33
21401;BME280;18038;50.166;18.908;2023-09-19T13:01:15;97684.09;;;19.25;72.67
21401;BME280;18038;50.166;18.908;2023-09-19T13:04:27;97681.06;;;19.54;71.76
21401;BME280;18038;50.166;18.908;2023-09-19T13:07:40;97671.63;;;19.62;70.80
21401;BME280;18038;50.166;18.908;2023-09-19T13:11:05;97674.16;;;19.79;68.96
21401;BME280;18038;50.166;18.908;2023-09-19T13:14:17;97680.13;;;19.76;69.33
21401;BME280;18038;50.166;18.908;2023-09-19T13:17:42;97679.09;;;19.92;69.18
21401;BME280;18038;50.166;18.908;2023-09-19T13:21:10;97689.41;;;19.95;68.83
21401;BME280;18038;50.166;18.908;2023-09-19T13:24:27;97690.88;;;20.08;67.45
21401;BME280;18038;50.166;18.908;2023-09-19T13:27:34;97683.91;;;20.38;66.30
21401;BME280;18038;50.166;18.908;2023-09-19T13:30:43;97679.13;;;20.65;66.94
21401;BME280;18038;50.166;18.908;2023-09-19T13:33:51;97677.47;;;20.64;66.21
21401;BME280;18038;50.166;18.908;2023-09-19T13:37:02;97686.34;;;20.29;66.29
21401;BME280;18038;50.166;18.908;2023-09-19T13:40:12;97687.81;;;19.99;66.80
21401;BME280;18038;50.166;18.908;2023-09-19T13:43:22;97694.34;;;19.56;70.75
21401;BME280;18038;50.166;18.908;2023-09-19T13:46:29;97705.28;;;19.34;72.03
21401;BME280;18038;50.166;18.908;2023-09-19T13:49:40;97707.28;;;18.84;75.38
21401;BME280;18038;50.166;18.908;2023-09-19T13:52:51;97713.16;;;18.32;79.89
21401;BME280;18038;50.166;18.908;2023-09-19T13:55:59;97702.66;;;17.91;82.37
21401;BME280;18038;50.166;18.908;2023-09-19T13:59:06;97706.97;;;17.53;83.18
21401;BME280;18038;50.166;18.908;2023-09-19T14:02:14;97702.25;;;17.27;84.30
21401;BME280;18038;50.166;18.908;2023-09-19T14:05:22;97703.22;;;17.04;84.95
21401;BME280;18038;50.166;18.908;2023-09-19T14:08:35;97698.78;;;16.81;85.58
21401;BME280;18038;50.166;18.908;2023-09-19T14:11:43;97690.56;;;16.76;83.97
21401;BME280;18038;50.166;18.908;2023-09-19T14:14:52;97699.97;;;16.73;82.92
21401;BME280;18038;50.166;18.908;2023-09-19T14:17:59;97687.13;;;16.63;81.42
21401;BME280;18038;50.166;18.908;2023-09-19T14:21:09;97694.63;;;16.61;83.00
21401;BME280;18038;50.166;18.908;2023-09-19T14:24:19;97704.13;;;16.64;82.10
21401;BME280;18038;50.166;18.908;2023-09-19T14:27:34;97698.41;;;16.60;82.33
21401;BME280;18038;50.166;18.908;2023-09-19T14:30:41;97698.84;;;16.57;82.29
21401;BME280;18038;50.166;18.908;2023-09-19T14:33:54;97706.41;;;16.55;83.44
21401;BME280;18038;50.166;18.908;2023-09-19T14:37:03;97704.13;;;16.64;84.02
21401;BME280;18038;50.166;18.908;2023-09-19T14:40:14;97705.59;;;16.72;84.82
21401;BME280;18038;50.166;18.908;2023-09-19T14:43:26;97707.44;;;16.83;84.32
21401;BME280;18038;50.166;18.908;2023-09-19T14:46:35;97708.63;;;16.87;84.07
21401;BME280;18038;50.166;18.908;2023-09-19T14:49:43;97705.13;;;17.03;84.15
21401;BME280;18038;50.166;18.908;2023-09-19T14:53:13;97710.59;;;17.08;83.31
21401;BME280;18038;50.166;18.908;2023-09-19T14:56:23;97722.59;;;17.01;84.58
21401;BME280;18038;50.166;18.908;2023-09-19T14:59:45;97718.25;;;16.83;85.23
21401;BME280;18038;50.166;18.908;2023-09-19T15:03:07;97720.41;;;16.69;85.02
21401;BME280;18038;50.166;18.908;2023-09-19T15:06:18;97712.13;;;16.59;83.40
21401;BME280;18038;50.166;18.908;2023-09-19T15:09:27;97705.91;;;16.58;83.88
21401;BME280;18038;50.166;18.908;2023-09-19T15:12:41;97706.91;;;16.40;83.52
21401;BME280;18038;50.166;18.908;2023-09-19T15:15:48;97702.69;;;16.45;83.57
21401;BME280;18038;50.166;18.908;2023-09-19T15:18:56;97698.69;;;16.47;83.13
21401;BME280;18038;50.166;18.908;2023-09-19T15:22:04;97697.75;;;16.41;84.26
21401;BME280;18038;50.166;18.908;2023-09-19T15:25:14;97699.91;;;16.39;84.85
21401;BME280;18038;50.166;18.908;2023-09-19T15:28:23;97707.06;;;16.34;85.28
21401;BME280;18038;50.166;18.908;2023-09-19T15:31:33;97699.44;;;16.31;85.90
21401;BME280;18038;50.166;18.908;2023-09-19T15:34:51;97696.09;;;16.24;86.25
21401;BME280;18038;50.166;18.908;2023-09-19T15:38:00;97701.69;;;16.22;87.48
21401;BME280;18038;50.166;18.908;2023-09-19T15:41:12;97696.31;;;16.22;87.60
21401;BME280;18038;50.166;18.908;2023-09-19T15:44:23;97711.78;;;16.15;88.39
21401;BME280;18038;50.166;18.908;2023-09-19T15:47:31;97707.94;;;15.99;89.75
21401;BME280;18038;50.166;18.908;2023-09-19T15:50:39;97692.16;;;15.91;90.78
21401;BME280;18038;50.166;18.908;2023-09-19T15:53:50;97699.88;;;15.99;90.48
21401;BME280;18038;50.166;18.908;2023-09-19T15:57:00;97683.53;;;15.89;90.62
21401;BME280;18038;50.166;18.908;2023-09-19T16:00:11;97686.31;;;15.82;91.06
21401;BME280;18038;50.166;18.908;2023-09-19T16:03:22;97694.84;;;15.91;91.07
21401;BME280;18038;50.166;18.908;2023-09-19T16:06:31;97692.28;;;15.96;90.51
21401;BME280;18038;50.166;18.908;2023-09-19T16:09:39;97695.94;;;15.90;90.45
21401;BME280;18038;50.166;18.908;2023-09-19T16:12:47;97696.63;;;15.97;89.84
21401;BME280;18038;50.166;18.908;2023-09-19T16:15:58;97703.38;;;16.11;89.13
21401;BME280;18038;50.166;18.908;2023-09-19T16:19:06;97709.34;;;16.13;88.44
21401;BME280;18038;50.166;18.908;2023-09-19T16:22:15;97710.97;;;16.14;88.12
21401;BME280;18038;50.166;18.908;2023-09-19T16:25:23;97716.91;;;16.28;87.60
21401;BME280;18038;50.166;18.908;2023-09-19T16:28:31;97710.38;;;16.24;86.88
21401;BME280;18038;50.166;18.908;2023-09-19T16:31:43;97727.72;;;16.16;87.15
21401;BME280;18038;50.166;18.908;2023-09-19T16:34:51;97723.53;;;16.09;86.89
21401;BME280;18038;50.166;18.908;2023-09-19T16:38:00;97727.28;;;15.96;86.93
21401;BME280;18038;50.166;18.908;2023-09-19T16:41:16;97728.13;;;15.85;86.99
21401;BME280;18038;50.166;18.908;2023-09-19T16:44:24;97726.34;;;15.78;87.70
21401;BME280;18038;50.166;18.908;2023-09-19T16:47:36;97728.94;;;15.73;88.04
21401;BME280;18038;50.166;18.908;2023-09-19T16:50:43;97729.63;;;15.69;87.73